Aviation Digital Data Service (ADDS)

Output produced by TAFs form (1937 UTC 16 January 2018)
found at http://www.aviationweather.gov/adds/tafs/
 
KSAN 161737Z 1618/1724 30007KT P6SM FEW003 BKN200 
     FM170600 VRB03KT 6SM BR BKN007 
     FM171000 30006KT P6SM SCT008 SCT200